Time;durP1;ratioP1;P1;durP2;ratioP2;P2;SDS_P1;SDS_P2;PMS_P1;PMS_P2;Temp;Humidity;BMP_temperature;BMP_pressure;BME280_temperature;BME280_humidity;BME280_pressure;Samples;Min_cycle;Max_cycle;Signal;HPM_P1;HPM_P2
2023/07/04 00:00:00;;;;;;;2.87;1.93;;;;;;;20.24;81.70;97988.84;4098990;28;20646;-81
2023/07/04 00:02:12;;;;;;;4.60;2.27;;;;;;;20.21;80.93;97986.53;4151288;28;20624;-81
2023/07/04 00:04:19;;;;;;;5.17;2.80;;;;;;;20.19;81.94;97989.34;4153528;28;20706;-81
2023/07/04 00:06:24;;;;;;;3.03;1.87;;;;;;;20.17;80.50;97995.78;4161456;28;21096;-81
2023/07/04 00:08:28;;;;;;;4.20;2.57;;;;;;;20.13;81.11;97997.94;4146929;28;20619;-81
2023/07/04 00:10:31;;;;;;;3.07;1.93;;;;;;;20.11;82.78;97994.63;4154769;28;20689;-81
2023/07/04 00:12:34;;;;;;;3.20;1.90;;;;;;;20.10;82.47;97995.63;4155627;28;20681;-81
2023/07/04 00:14:39;;;;;;;3.33;2.37;;;;;;;20.08;81.85;97994.13;4143843;28;20626;-81
2023/07/04 00:16:42;;;;;;;3.20;2.10;;;;;;;20.05;80.63;97999.75;4169475;28;20639;-81
2023/07/04 00:18:45;;;;;;;3.20;1.90;;;;;;;20.03;82.30;98001.75;4139390;28;20647;-80
2023/07/04 00:20:53;;;;;;;2.57;1.50;;;;;;;19.97;81.61;97997.94;4144489;28;20670;-80
2023/07/04 00:22:56;;;;;;;3.60;2.40;;;;;;;19.92;81.60;98000.25;4153537;28;20736;-80
2023/07/04 00:24:59;;;;;;;4.00;2.10;;;;;;;19.87;81.77;97999.09;4138590;28;20702;-79
2023/07/04 00:27:02;;;;;;;3.20;1.80;;;;;;;19.84;83.40;97987.00;4153197;28;21390;-78
2023/07/04 00:29:06;;;;;;;2.70;1.80;;;;;;;19.83;82.80;97992.44;4154079;28;20747;-80
2023/07/04 00:31:14;;;;;;;3.33;2.00;;;;;;;19.80;82.56;97983.97;4156163;28;20626;-80
2023/07/04 00:33:17;;;;;;;2.23;1.60;;;;;;;19.74;82.89;97987.28;4156923;28;21007;-80
2023/07/04 00:35:20;;;;;;;4.20;2.10;;;;;;;19.70;81.89;97988.63;4157488;28;20673;-80
2023/07/04 00:37:24;;;;;;;3.13;1.73;;;;;;;19.67;82.77;97984.47;4145683;28;20716;-80
2023/07/04 00:39:27;;;;;;;4.33;1.70;;;;;;;19.66;82.52;97987.28;4158422;28;20681;-80
2023/07/04 00:41:31;;;;;;;3.50;2.00;;;;;;;19.65;83.49;97989.09;4139386;28;20643;-80
2023/07/04 00:43:46;;;;;;;2.93;1.90;;;;;;;19.66;83.98;97998.69;4152211;28;20717;-80
2023/07/04 00:45:56;;;;;;;2.87;2.30;;;;;;;19.64;84.51;98002.50;4150648;28;20622;-80
2023/07/04 00:48:02;;;;;;;3.17;2.10;;;;;;;19.63;83.88;97991.06;4153846;28;20764;-79
2023/07/04 00:50:09;;;;;;;3.60;2.40;;;;;;;19.63;83.72;98000.84;4155466;28;20659;-80
2023/07/04 00:52:15;;;;;;;4.37;2.00;;;;;;;19.60;82.66;97994.03;4159726;28;20977;-79
2023/07/04 00:54:20;;;;;;;3.57;2.23;;;;;;;19.57;82.74;98004.94;4159312;28;20619;-80
2023/07/04 00:56:25;;;;;;;3.43;2.20;;;;;;;19.55;84.10;98001.66;4154438;28;20646;-80
2023/07/04 00:58:31;;;;;;;3.63;2.70;;;;;;;19.50;84.94;98003.97;4150927;28;20635;-80
2023/07/04 01:00:37;;;;;;;2.97;2.13;;;;;;;19.45;84.83;98008.06;4148037;28;20635;-80
2023/07/04 01:02:40;;;;;;;4.30;2.50;;;;;;;19.42;84.37;98003.94;4153667;28;20628;-80
2023/07/04 01:04:46;;;;;;;3.53;2.40;;;;;;;19.41;83.93;98009.41;4152619;28;20789;-79
2023/07/04 01:06:55;;;;;;;2.73;2.03;;;;;;;19.40;84.33;98002.44;4153430;28;20717;-80
2023/07/04 01:09:00;;;;;;;3.73;2.20;;;;;;;19.41;84.12;97998.81;4140943;28;20624;-79
2023/07/04 01:11:07;;;;;;;3.37;2.40;;;;;;;19.40;85.79;98008.56;4152020;28;20753;-79
2023/07/04 01:13:33;;;;;;;3.57;2.03;;;;;;;19.37;84.57;98009.88;4148418;28;20652;-80
2023/07/04 01:15:37;;;;;;;4.00;2.10;;;;;;;19.34;85.04;98008.38;4172155;28;21050;-80
2023/07/04 01:17:41;;;;;;;4.50;2.73;;;;;;;19.30;86.63;98007.03;4137730;28;21086;-79
2023/07/04 01:19:46;;;;;;;4.63;2.17;;;;;;;19.29;86.01;98009.84;4154323;28;20788;-80
2023/07/04 01:21:52;;;;;;;3.77;2.40;;;;;;;19.29;86.15;98012.47;4154543;28;21023;-80
2023/07/04 01:24:01;;;;;;;3.00;2.00;;;;;;;19.32;84.81;98009.50;4157997;28;20624;-80
2023/07/04 01:26:17;;;;;;;2.97;2.10;;;;;;;19.33;85.03;98005.88;4140962;28;20624;-80
2023/07/04 01:28:21;;;;;;;3.53;2.10;;;;;;;19.33;85.48;98000.59;4156398;28;20657;-80
2023/07/04 01:30:24;;;;;;;2.83;2.03;;;;;;;19.29;84.99;98007.19;4135561;28;20734;-80
2023/07/04 01:32:28;;;;;;;7.20;2.93;;;;;;;19.24;85.24;98010.31;4155361;28;20733;-79
2023/07/04 01:34:33;;;;;;;4.97;2.23;;;;;;;19.21;86.11;98004.53;4152294;28;20646;-80
2023/07/04 01:36:38;;;;;;;3.70;2.23;;;;;;;19.17;86.10;98005.81;4156082;28;20684;-80
2023/07/04 01:38:43;;;;;;;4.47;2.40;;;;;;;19.19;86.30;98014.44;4144688;28;20719;-80
2023/07/04 01:40:46;;;;;;;3.13;1.97;;;;;;;19.19;87.16;98015.25;4145164;28;20718;-80
2023/07/04 01:42:51;;;;;;;3.77;2.70;;;;;;;19.19;86.64;98011.78;4140912;28;20626;-79
2023/07/04 01:44:54;;;;;;;3.40;2.37;;;;;;;19.20;85.84;98010.78;4161191;28;20724;-80
2023/07/04 01:46:57;;;;;;;3.37;2.30;;;;;;;19.19;86.00;98019.72;4151244;28;20664;-80
2023/07/04 01:49:01;;;;;;;2.50;1.87;;;;;;;19.17;86.29;98006.66;4156284;28;21264;-80
2023/07/04 01:51:04;;;;;;;3.40;2.30;;;;;;;19.16;86.83;98009.47;4161710;28;20729;-80
2023/07/04 01:53:07;;;;;;;2.60;1.90;;;;;;;19.15;87.15;98010.44;4145237;28;21098;-80
2023/07/04 01:55:12;;;;;;;3.43;2.00;;;;;;;19.12;86.56;98016.88;4144539;28;20653;-80
2023/07/04 01:57:15;;;;;;;2.73;2.03;;;;;;;19.12;86.80;98008.13;4155926;28;20675;-80
2023/07/04 01:59:20;;;;;;;3.20;2.30;;;;;;;19.10;85.73;98012.75;4160908;28;21103;-80
2023/07/04 02:01:24;;;;;;;4.00;2.50;;;;;;;19.10;85.79;98020.69;4155500;28;20655;-80
2023/07/04 02:03:28;;;;;;;2.70;2.10;;;;;;;19.08;86.43;98023.50;4148563;28;20662;-80
2023/07/04 02:05:31;;;;;;;3.37;2.50;;;;;;;19.04;85.79;98026.59;4141357;28;20768;-80
2023/07/04 02:07:35;;;;;;;3.63;2.10;;;;;;;19.03;85.99;98019.66;4129556;28;20677;-80
2023/07/04 02:09:38;;;;;;;2.83;2.00;;;;;;;18.97;86.11;98020.25;4128364;28;20657;-80
2023/07/04 02:11:41;;;;;;;3.63;2.20;;;;;;;18.91;87.31;98024.38;4162209;28;20638;-80
2023/07/04 02:13:45;;;;;;;3.77;2.30;;;;;;;18.88;87.60;98023.84;4155499;28;20731;-80
2023/07/04 02:15:49;;;;;;;4.70;3.20;;;;;;;18.88;87.42;98021.19;4141756;28;20615;-80
2023/07/04 02:17:53;;;;;;;2.93;2.10;;;;;;;18.86;87.51;98019.72;4137317;28;20649;-80
2023/07/04 02:19:56;;;;;;;3.40;2.07;;;;;;;18.85;87.77;98018.84;4152552;28;21271;-80
2023/07/04 02:21:59;;;;;;;3.60;2.23;;;;;;;18.83;86.97;98023.47;4155985;28;20659;-80
2023/07/04 02:24:02;;;;;;;3.67;2.40;;;;;;;18.79;87.19;98022.13;4133866;28;20657;-80
2023/07/04 02:26:06;;;;;;;2.93;1.90;;;;;;;18.79;87.98;98022.13;4129189;28;21202;-80
2023/07/04 02:28:09;;;;;;;3.80;2.20;;;;;;;18.79;86.98;98016.03;4139558;28;20629;-80
2023/07/04 02:30:13;;;;;;;4.53;2.10;;;;;;;18.80;87.41;98028.25;4158455;28;20620;-80
2023/07/04 02:32:19;;;;;;;3.57;2.13;;;;;;;18.81;87.83;98024.63;4142897;28;20609;-80
2023/07/04 02:34:22;;;;;;;4.53;2.10;;;;;;;18.81;88.08;98029.91;4154648;28;20620;-80
2023/07/04 02:36:26;;;;;;;3.90;2.43;;;;;;;18.81;87.52;98021.97;4140407;28;21176;-80
2023/07/04 02:38:29;;;;;;;3.40;2.37;;;;;;;18.79;87.44;98029.25;4148788;28;20674;-80
2023/07/04 02:40:34;;;;;;;3.53;2.40;;;;;;;18.78;87.95;98027.56;4147530;28;21067;-80
2023/07/04 02:42:38;;;;;;;4.10;2.40;;;;;;;18.76;87.54;98024.25;4147411;28;20638;-80
2023/07/04 02:44:43;;;;;;;3.20;2.20;;;;;;;18.77;87.87;98031.22;4147900;28;20686;-80
2023/07/04 02:46:48;;;;;;;3.37;2.53;;;;;;;18.79;88.63;98029.25;4140163;28;21021;-80
2023/07/04 02:48:52;;;;;;;4.30;2.40;;;;;;;18.83;88.38;98034.06;4149632;28;20625;-80
2023/07/04 02:50:56;;;;;;;4.03;2.10;;;;;;;18.87;88.74;98024.00;4142680;28;21005;-80
2023/07/04 02:53:00;;;;;;;4.73;2.37;;;;;;;18.91;89.18;98031.44;4138244;28;20664;-80
2023/07/04 02:55:04;;;;;;;4.30;2.40;;;;;;;18.93;89.07;98022.38;4154297;28;20650;-80
2023/07/04 02:57:13;;;;;;;3.30;2.07;;;;;;;18.97;88.73;98028.19;4154235;28;21192;-80
2023/07/04 02:59:17;;;;;;;2.77;2.00;;;;;;;18.99;87.64;98036.81;4151979;28;20628;-80
2023/07/04 03:01:21;;;;;;;5.37;2.03;;;;;;;18.99;86.99;98032.34;4150577;28;20665;-80
2023/07/04 03:03:27;;;;;;;4.87;2.30;;;;;;;19.00;88.15;98030.50;4168986;28;20640;-80
2023/07/04 03:05:39;;;;;;;4.10;2.53;;;;;;;18.99;88.08;98039.44;4160516;28;20641;-80
2023/07/04 03:07:43;;;;;;;3.90;2.10;;;;;;;18.99;87.59;98042.91;4146476;28;20637;-81
2023/07/04 03:09:50;;;;;;;5.00;2.10;;;;;;;18.98;88.05;98041.25;4156005;28;20632;-81
2023/07/04 03:11:56;;;;;;;3.27;2.30;;;;;;;18.96;87.97;98047.69;4138814;28;20655;-81
2023/07/04 03:13:59;;;;;;;4.83;2.27;;;;;;;18.93;88.06;98048.81;4158508;28;20624;-81
2023/07/04 03:16:03;;;;;;;3.37;2.00;;;;;;;18.92;88.34;98054.28;4156556;28;20702;-81
2023/07/04 03:18:07;;;;;;;5.30;2.50;;;;;;;18.91;87.90;98053.44;4151994;28;20734;-81
2023/07/04 03:20:13;;;;;;;3.20;2.03;;;;;;;18.89;87.56;98052.75;4151124;28;20756;-81
2023/07/04 03:22:20;;;;;;;2.80;2.23;;;;;;;18.88;88.12;98046.81;4161824;28;21249;-81
2023/07/04 03:24:24;;;;;;;3.20;2.17;;;;;;;18.88;87.50;98052.09;4139927;28;20646;-82
2023/07/04 03:26:27;;;;;;;3.50;2.53;;;;;;;18.85;87.85;98052.41;4152208;28;20691;-83
2023/07/04 03:28:32;;;;;;;3.57;2.10;;;;;;;18.83;87.56;98057.84;4149208;28;21266;-82
2023/07/04 03:30:35;;;;;;;3.40;2.20;;;;;;;18.80;88.48;98044.94;4147565;28;21225;-82
2023/07/04 03:32:43;;;;;;;4.07;2.50;;;;;;;18.79;88.24;98048.56;4156924;28;20756;-82
2023/07/04 03:34:47;;;;;;;3.10;2.23;;;;;;;18.77;87.87;98058.47;4155128;28;20726;-82
2023/07/04 03:36:51;;;;;;;3.20;2.30;;;;;;;18.74;87.93;98052.69;4156394;28;20719;-82
2023/07/04 03:38:55;;;;;;;4.43;2.50;;;;;;;18.71;88.30;98045.06;4138853;28;20630;-82
2023/07/04 03:41:01;;;;;;;2.70;2.20;;;;;;;18.67;88.96;98049.84;4147821;28;21228;-82
2023/07/04 03:43:04;;;;;;;3.63;2.10;;;;;;;18.65;88.51;98054.44;4155398;28;21259;-82
2023/07/04 03:45:08;;;;;;;3.00;2.10;;;;;;;18.66;88.22;98063.19;4134959;28;21011;-82
2023/07/04 03:47:11;;;;;;;3.27;2.00;;;;;;;18.64;88.58;98066.00;4137295;28;20645;-82
2023/07/04 03:49:14;;;;;;;3.73;2.43;;;;;;;18.65;88.27;98062.34;4148631;28;20630;-82
2023/07/04 03:51:19;;;;;;;3.23;2.20;;;;;;;18.66;89.12;98056.09;4165444;28;20718;-82
2023/07/04 03:53:23;;;;;;;4.23;2.53;;;;;;;18.65;89.33;98062.34;4146911;28;20682;-82
2023/07/04 03:55:27;;;;;;;3.37;2.30;;;;;;;18.66;89.69;98063.19;4136637;28;20641;-82
2023/07/04 03:57:31;;;;;;;3.73;2.40;;;;;;;18.67;89.28;98064.84;4168820;28;20670;-82
2023/07/04 03:59:34;;;;;;;6.37;2.70;;;;;;;18.67;89.48;98060.41;4165117;28;20652;-82
2023/07/04 04:01:37;;;;;;;3.73;1.97;;;;;;;18.67;89.72;98062.19;4149133;28;20657;-83
2023/07/04 04:03:40;;;;;;;5.27;2.70;;;;;;;18.67;89.18;98060.41;4136191;28;20632;-88
2023/07/04 04:05:43;;;;;;;6.03;2.80;;;;;;;18.67;89.87;98052.47;4152535;28;20689;-84
2023/07/04 04:07:48;;;;;;;4.20;2.50;;;;;;;18.71;89.51;98059.09;4151779;28;21262;-88
2023/07/04 04:09:51;;;;;;;4.00;2.37;;;;;;;18.72;89.93;98063.41;4148118;28;20626;-91
2023/07/04 04:11:56;;;;;;;3.33;2.50;;;;;;;18.75;89.79;98056.94;4148723;28;20703;-88
2023/07/04 04:13:59;;;;;;;4.23;2.27;;;;;;;18.77;89.11;98063.75;4150607;28;21186;-90
2023/07/04 04:16:02;;;;;;;6.20;3.00;;;;;;;18.79;89.97;98056.50;4163814;28;21017;-90
2023/07/04 04:18:05;;;;;;;5.77;3.47;;;;;;;18.82;89.15;98060.66;4151019;28;20648;-90
2023/07/04 04:20:10;;;;;;;3.27;2.43;;;;;;;18.86;89.33;98054.06;4143410;28;20634;-90
2023/07/04 04:22:16;;;;;;;4.57;2.60;;;;;;;18.89;89.75;98057.22;4154868;28;20657;-90
2023/07/04 04:24:19;;;;;;;4.73;2.10;;;;;;;18.90;89.13;98061.53;4154329;28;20618;-91
2023/07/04 04:26:25;;;;;;;4.20;2.77;;;;;;;18.93;88.88;98066.50;4154332;28;20659;-92
2023/07/04 04:28:29;;;;;;;4.90;2.37;;;;;;;18.97;91.29;98073.13;4155189;28;20624;-92
2023/07/04 04:30:32;;;;;;;34.70;8.60;;;;;;;18.97;93.30;98062.53;4148927;28;20622;-91
2023/07/04 04:32:36;;;;;;;4.63;2.80;;;;;;;18.97;95.11;98065.19;4150449;28;20737;-93
2023/07/04 04:34:39;;;;;;;3.13;2.30;;;;;;;18.97;95.09;98066.03;4148955;28;20634;-93
2023/07/04 04:36:42;;;;;;;5.40;3.20;;;;;;;18.98;95.27;98065.03;4154430;28;20732;-92
2023/07/04 04:38:45;;;;;;;4.07;2.80;;;;;;;19.00;95.30;98071.00;4159429;28;21312;-91
2023/07/04 04:40:50;;;;;;;5.27;3.00;;;;;;;19.03;95.22;98069.88;4156314;28;20657;-91
2023/07/04 04:42:55;;;;;;;4.40;2.80;;;;;;;19.07;95.31;98073.88;4154454;28;20637;-91
2023/07/04 04:45:00;;;;;;;4.10;2.77;;;;;;;19.09;93.31;98071.91;4141749;28;20632;-91
2023/07/04 04:47:05;;;;;;;4.57;2.93;;;;;;;19.14;94.99;98075.75;4157587;28;20670;-91
2023/07/04 04:49:10;;;;;;;4.00;2.53;;;;;;;19.19;95.33;98080.56;4145503;28;20638;-90
2023/07/04 04:51:13;;;;;;;4.67;3.00;;;;;;;19.21;93.60;98081.22;4167856;28;21330;-91
2023/07/04 04:53:16;;;;;;;4.83;3.33;;;;;;;19.27;93.90;98091.16;4148714;28;20643;-88
2023/07/04 04:55:20;;;;;;;4.60;3.00;;;;;;;19.31;94.06;98093.34;4149283;28;20729;-90
2023/07/04 04:57:23;;;;;;;4.80;3.23;;;;;;;19.38;94.66;98097.03;4135755;28;21185;-90
2023/07/04 04:59:26;;;;;;;3.57;2.47;;;;;;;19.45;94.07;98092.75;4153582;28;20629;-90
2023/07/04 05:01:31;;;;;;;3.80;3.00;;;;;;;19.52;92.22;98097.25;4154744;28;20747;-90
2023/07/04 05:03:34;;;;;;;3.73;2.60;;;;;;;19.61;91.25;98095.47;4150147;28;20630;-90
2023/07/04 05:05:37;;;;;;;4.23;2.70;;;;;;;19.70;92.70;98094.50;4152280;28;20642;-90
2023/07/04 05:07:40;;;;;;;4.47;2.90;;;;;;;19.79;92.70;98104.94;4151463;28;20787;-90
2023/07/04 05:09:43;;;;;;;4.97;3.10;;;;;;;19.85;93.59;98107.78;4134209;28;20655;-89
2023/07/04 05:11:47;;;;;;;4.63;3.17;;;;;;;19.89;93.84;98111.81;4158032;28;20633;-90
2023/07/04 05:13:51;;;;;;;3.83;2.50;;;;;;;19.93;94.19;98107.81;4153209;28;20614;-90
2023/07/04 05:15:59;;;;;;;4.17;3.00;;;;;;;19.95;93.99;98113.81;4138633;28;20627;-89
2023/07/04 05:18:03;;;;;;;4.87;3.10;;;;;;;20.04;93.72;98125.22;4154811;28;20684;-89
2023/07/04 05:20:09;;;;;;;4.40;2.80;;;;;;;20.18;92.25;98121.97;4153246;28;20983;-89
2023/07/04 05:22:12;;;;;;;4.10;3.23;;;;;;;20.27;89.95;98118.34;4132803;28;20663;-90
2023/07/04 05:24:15;;;;;;;4.83;2.90;;;;;;;20.35;90.45;98121.81;4151983;28;20741;-90
2023/07/04 05:26:20;;;;;;;4.37;3.00;;;;;;;20.38;89.18;98121.47;4149008;28;21097;-89
2023/07/04 05:28:23;;;;;;;6.43;3.10;;;;;;;20.38;89.26;98127.59;4153682;28;20639;-90
2023/07/04 05:30:26;;;;;;;4.07;2.97;;;;;;;20.40;88.96;98128.28;4150137;28;20618;-89
2023/07/04 05:32:30;;;;;;;5.13;3.17;;;;;;;20.43;89.92;98133.25;4149723;28;20626;-89
2023/07/04 05:34:35;;;;;;;5.70;3.53;;;;;;;20.50;92.16;98125.47;4154584;28;20637;-89
2023/07/04 05:36:38;;;;;;;8.50;3.73;;;;;;;20.57;90.73;98129.94;4154354;28;20709;-89
2023/07/04 05:38:42;;;;;;;5.07;3.40;;;;;;;20.67;90.41;98135.06;4140017;28;20723;-89
2023/07/04 05:40:45;;;;;;;4.40;3.30;;;;;;;20.75;91.72;98128.00;4157762;28;21029;-90
2023/07/04 05:42:48;;;;;;;3.70;2.77;;;;;;;20.83;90.51;98131.44;4135817;28;20663;-89
2023/07/04 05:44:51;;;;;;;3.60;2.40;;;;;;;20.90;89.74;98127.16;4152554;28;20642;-90
2023/07/04 05:46:54;;;;;;;3.80;2.73;;;;;;;21.01;89.53;98137.41;4150946;28;20611;-89
2023/07/04 05:48:58;;;;;;;4.30;2.93;;;;;;;21.09;88.73;98126.78;4158857;28;20735;-89
2023/07/04 05:51:04;;;;;;;9.33;2.83;;;;;;;21.26;86.22;98133.72;4152701;28;21011;-90
2023/07/04 05:53:07;;;;;;;3.87;2.57;;;;;;;21.27;83.90;98124.75;4156811;28;21284;-89
2023/07/04 05:55:10;;;;;;;3.83;2.47;;;;;;;21.52;84.09;98131.69;4151399;28;20654;-90
2023/07/04 05:57:14;;;;;;;3.63;2.10;;;;;;;21.80;82.98;98131.91;4147821;28;20666;-89
2023/07/04 05:59:17;;;;;;;3.13;2.27;;;;;;;22.09;82.56;98137.41;4149754;28;20675;-89
2023/07/04 06:01:23;;;;;;;3.90;2.33;;;;;;;22.51;82.95;98141.31;4153938;28;20699;-89
2023/07/04 06:03:26;;;;;;;5.50;3.03;;;;;;;22.90;82.04;98142.00;4154254;28;20655;-89
2023/07/04 06:05:30;;;;;;;5.00;2.90;;;;;;;23.00;80.18;98139.94;4159139;28;21332;-89
2023/07/04 06:07:35;;;;;;;3.10;2.17;;;;;;;22.90;80.54;98145.47;4147323;28;20639;-91
2023/07/04 06:09:38;;;;;;;3.67;2.47;;;;;;;22.81;78.98;98143.06;4144222;28;20647;-88
2023/07/04 06:11:45;;;;;;;2.80;2.00;;;;;;;22.76;80.03;98134.78;4150977;28;21218;-85
2023/07/04 06:13:48;;;;;;;4.10;2.37;;;;;;;22.75;80.01;98141.13;4169937;28;20715;-85
2023/07/04 06:15:52;;;;;;;5.23;2.70;;;;;;;22.64;79.68;98132.72;4157292;28;20741;-86
2023/07/04 06:17:55;;;;;;;4.03;2.57;;;;;;;22.59;78.86;98133.25;4156599;28;20632;-85
2023/07/04 06:19:58;;;;;;;4.03;2.37;;;;;;;22.81;79.57;98143.06;4160358;28;20634;-86
2023/07/04 06:22:05;;;;;;;8.13;3.83;;;;;;;23.19;78.61;98142.09;4144883;28;20629;-85
2023/07/04 06:24:09;;;;;;;2.70;2.20;;;;;;;23.55;78.09;98144.69;4156812;28;20640;-85
2023/07/04 06:26:16;;;;;;;4.00;2.13;;;;;;;23.92;77.61;98142.75;4158325;28;20629;-85
2023/07/04 06:28:19;;;;;;;3.40;2.17;;;;;;;24.27;75.73;98150.78;4155138;28;20644;-87
2023/07/04 06:30:22;;;;;;;7.43;2.50;;;;;;;24.43;73.83;98141.72;4152705;28;20641;-87
2023/07/04 06:32:25;;;;;;;4.50;2.70;;;;;;;24.68;74.31;98155.34;4154372;28;20614;-87
2023/07/04 06:34:29;;;;;;;4.10;2.33;;;;;;;24.97;74.84;98151.72;4153109;28;20876;-87
2023/07/04 06:36:32;;;;;;;4.13;2.00;;;;;;;25.16;71.27;98144.72;4151007;28;20644;-86
2023/07/04 06:38:35;;;;;;;2.90;2.10;;;;;;;25.37;71.69;98147.34;4152591;28;20689;-83
2023/07/04 06:40:41;;;;;;;3.00;1.87;;;;;;;25.66;70.28;98150.66;4159279;28;20723;-84
2023/07/04 06:42:44;;;;;;;3.10;1.97;;;;;;;25.84;70.86;98147.44;4150054;28;20653;-84
2023/07/04 06:44:47;;;;;;;11.53;7.90;;;;;;;25.76;70.11;98150.28;4156285;28;20645;-84
2023/07/04 06:46:50;;;;;;;3.73;2.47;;;;;;;25.57;70.45;98144.81;4150149;28;20653;-84
2023/07/04 06:48:53;;;;;;;3.13;2.20;;;;;;;25.35;69.66;98146.72;4168879;28;20632;-84
2023/07/04 06:50:57;;;;;;;3.17;2.07;;;;;;;25.38;66.13;98143.66;4138719;28;20664;-84
2023/07/04 06:53:01;;;;;;;5.47;2.87;;;;;;;25.26;65.80;98147.06;4138345;28;20704;-84
2023/07/04 06:55:05;;;;;;;4.40;2.50;;;;;;;25.04;66.41;98144.63;4154335;28;21286;-84
2023/07/04 06:57:10;;;;;;;4.60;2.30;;;;;;;25.34;67.47;98154.94;4136963;28;20645;-84
2023/07/04 06:59:14;;;;;;;3.57;2.20;;;;;;;25.75;66.34;98153.97;4133653;28;21057;-83
2023/07/04 07:01:18;;;;;;;4.10;2.00;;;;;;;25.93;65.23;98140.91;4143365;28;20627;-84
2023/07/04 07:03:22;;;;;;;4.80;2.10;;;;;;;25.96;63.55;98144.00;4146913;28;20643;-84
2023/07/04 07:05:25;;;;;;;4.07;2.53;;;;;;;25.99;65.21;98143.59;4142699;28;20690;-84
2023/07/04 07:07:29;;;;;;;4.37;2.23;;;;;;;25.98;64.24;98143.81;4156442;28;21056;-84
2023/07/04 07:09:36;;;;;;;3.87;2.33;;;;;;;26.08;65.12;98149.63;4150240;28;20632;-83
2023/07/04 07:11:42;;;;;;;4.10;2.40;;;;;;;26.09;64.44;98149.44;4146107;28;21227;-88
2023/07/04 07:13:47;;;;;;;3.70;2.63;;;;;;;26.24;65.45;98156.28;4149006;28;20671;-86
2023/07/04 07:15:50;;;;;;;3.47;2.27;;;;;;;26.10;62.87;98148.41;4152953;28;20652;-86
2023/07/04 07:17:53;;;;;;;4.03;2.33;;;;;;;25.88;63.32;98143.38;4148261;28;20736;-86
2023/07/04 07:19:57;;;;;;;3.20;2.13;;;;;;;25.69;63.14;98133.38;4169857;28;20735;-85
2023/07/04 07:22:01;;;;;;;3.90;2.17;;;;;;;25.59;63.86;98138.25;4148916;28;20643;-86
2023/07/04 07:24:04;;;;;;;4.30;2.30;;;;;;;25.51;64.00;98140.25;4154961;28;20657;-86
2023/07/04 07:26:10;;;;;;;4.07;2.70;;;;;;;25.52;64.08;98142.72;4156473;28;20683;-86
2023/07/04 07:28:13;;;;;;;3.70;2.90;;;;;;;25.54;63.51;98135.31;4166790;28;20701;-86
2023/07/04 07:30:18;;;;;;;4.03;2.40;;;;;;;25.68;63.82;98137.91;4134090;28;20976;-86
2023/07/04 07:32:21;;;;;;;4.80;2.50;;;;;;;25.92;63.21;98148.13;4157076;28;20643;-86
2023/07/04 07:34:25;;;;;;;3.50;2.33;;;;;;;26.19;61.82;98150.72;4153163;28;20724;-86
2023/07/04 07:36:30;;;;;;;5.27;2.93;;;;;;;26.06;61.77;98141.00;4137206;28;21907;-86
2023/07/04 07:38:33;;;;;;;8.37;2.77;;;;;;;25.87;61.87;98150.53;4140720;28;20753;-86
2023/07/04 07:40:37;;;;;;;3.27;2.20;;;;;;;25.81;62.04;98142.50;4151966;28;20638;-86
2023/07/04 07:42:40;;;;;;;4.90;2.37;;;;;;;25.71;61.68;98126.81;4150997;28;20635;-86
2023/07/04 07:44:43;;;;;;;4.33;2.50;;;;;;;25.70;62.94;98140.38;4153496;28;20678;-86
2023/07/04 07:46:48;;;;;;;3.80;2.43;;;;;;;25.68;62.95;98139.78;4153625;28;20642;-86
2023/07/04 07:48:51;;;;;;;3.93;2.50;;;;;;;25.65;63.36;98140.16;4136900;28;20649;-86
2023/07/04 07:50:54;;;;;;;3.90;2.70;;;;;;;25.63;63.01;98134.13;4141028;28;20629;-86
2023/07/04 07:52:58;;;;;;;3.87;1.90;;;;;;;25.56;62.53;98138.63;4150175;28;20680;-86
2023/07/04 07:55:01;;;;;;;6.37;2.63;;;;;;;25.47;63.46;98126.44;4145249;28;20666;-85
2023/07/04 07:57:04;;;;;;;4.13;2.50;;;;;;;25.36;62.12;98120.81;4139235;28;20631;-86
2023/07/04 07:59:09;;;;;;;6.07;2.57;;;;;;;25.29;63.50;98128.78;4132632;28;20703;-85
2023/07/04 08:01:13;;;;;;;3.93;2.40;;;;;;;25.37;64.45;98122.47;4152085;28;20736;-86
2023/07/04 08:03:17;;;;;;;4.40;2.83;;;;;;;25.51;63.39;98125.03;4141045;28;20656;-86
2023/07/04 08:05:21;;;;;;;4.10;2.30;;;;;;;25.74;63.32;98125.59;4153395;28;20707;-86
2023/07/04 08:07:24;;;;;;;4.17;2.20;;;;;;;26.00;63.67;98123.06;4150992;28;20633;-86
2023/07/04 08:09:29;;;;;;;6.43;2.60;;;;;;;26.24;62.02;98132.19;4157985;28;20680;-86
2023/07/04 08:11:32;;;;;;;4.13;2.77;;;;;;;26.43;63.43;98139.50;4161034;28;20629;-84
2023/07/04 08:13:36;;;;;;;4.27;2.40;;;;;;;26.59;62.35;98136.44;4157780;28;20631;-84
2023/07/04 08:15:39;;;;;;;4.60;2.50;;;;;;;26.56;62.94;98133.34;4177918;28;20634;-84
2023/07/04 08:17:42;;;;;;;3.53;2.63;;;;;;;26.25;61.82;98127.66;4141787;28;20771;-84
2023/07/04 08:19:47;;;;;;;6.23;2.83;;;;;;;26.00;62.66;98115.03;4150451;28;20635;-85
2023/07/04 08:21:50;;;;;;;6.43;2.80;;;;;;;26.04;62.06;98121.63;4175286;28;21055;-85
2023/07/04 08:23:54;;;;;;;4.13;2.47;;;;;;;25.97;62.62;98120.78;4156965;28;20942;-86
2023/07/04 08:25:58;;;;;;;3.97;2.57;;;;;;;25.95;63.56;98118.31;4145678;28;20628;-85
2023/07/04 08:28:01;;;;;;;3.30;2.30;;;;;;;25.84;62.95;98112.69;4161042;28;20857;-85
2023/07/04 08:30:05;;;;;;;5.27;2.97;;;;;;;25.75;62.57;98111.22;4147129;28;20669;-85
2023/07/04 08:32:10;;;;;;;4.40;2.77;;;;;;;25.71;62.43;98109.97;4162616;28;20626;-85
2023/07/04 08:34:14;;;;;;;6.20;3.87;;;;;;;25.67;62.97;98109.53;4164618;28;20729;-85
2023/07/04 08:36:19;;;;;;;5.17;2.77;;;;;;;25.68;63.17;98119.22;4155118;28;20675;-85
2023/07/04 08:38:22;;;;;;;6.60;2.60;;;;;;;25.65;62.47;98111.59;4161451;28;20717;-85
2023/07/04 08:40:26;;;;;;;4.87;2.67;;;;;;;25.68;63.30;98115.72;4146260;28;20611;-85
2023/07/04 08:42:31;;;;;;;4.30;2.70;;;;;;;25.64;63.10;98114.44;4152426;28;20644;-85
2023/07/04 08:44:36;;;;;;;4.50;3.00;;;;;;;25.76;62.71;98112.88;4139625;28;20666;-85
2023/07/04 08:46:42;;;;;;;6.10;3.20;;;;;;;25.90;62.12;98120.72;4157736;28;21341;-85
2023/07/04 08:48:46;;;;;;;9.63;3.43;;;;;;;25.98;62.53;98123.25;4140275;28;21986;-86
2023/07/04 08:50:49;;;;;;;5.10;2.87;;;;;;;26.10;61.39;98119.81;4138203;28;21279;-83
2023/07/04 08:52:59;;;;;;;5.13;2.93;;;;;;;26.24;61.03;98123.34;4152334;28;21080;-84
2023/07/04 08:55:02;;;;;;;4.50;2.90;;;;;;;26.39;62.24;98132.88;4155530;28;20622;-84
2023/07/04 08:57:12;;;;;;;5.33;3.27;;;;;;;26.51;61.63;98131.28;4170753;28;20746;-83
2023/07/04 08:59:21;;;;;;;3.77;3.23;;;;;;;26.52;61.51;98124.88;4158820;28;20706;-84
2023/07/04 09:01:31;;;;;;;5.50;3.50;;;;;;;26.54;61.67;98130.88;4140323;28;20717;-83
2023/07/04 09:03:42;;;;;;;5.40;3.23;;;;;;;26.69;59.58;98126.97;4142706;28;20638;-83
2023/07/04 09:05:53;;;;;;;5.00;3.20;;;;;;;27.04;61.47;98133.03;4156229;28;21217;-83
2023/07/04 09:08:08;;;;;;;4.67;3.20;;;;;;;27.41;59.14;98136.69;4151993;28;20645;-83
2023/07/04 09:10:19;;;;;;;5.30;3.70;;;;;;;27.71;58.65;98136.06;4139905;28;20941;-83
2023/07/04 09:12:23;;;;;;;6.00;3.97;;;;;;;28.03;58.97;98143.16;4156690;28;21098;-84
2023/07/04 09:14:30;;;;;;;7.30;4.10;;;;;;;27.74;55.69;98132.94;4158419;28;20641;-83
2023/07/04 09:16:37;;;;;;;6.03;3.80;;;;;;;27.52;55.67;98134.22;4155132;28;20657;-84
2023/07/04 09:18:49;;;;;;;7.83;4.20;;;;;;;27.39;58.13;98124.53;4154477;28;20646;-83
2023/07/04 09:20:57;;;;;;;5.87;3.83;;;;;;;27.45;57.41;98124.50;4154080;28;20662;-83
2023/07/04 09:23:04;;;;;;;5.87;3.53;;;;;;;27.46;59.22;98130.72;4141031;28;20692;-83
2023/07/04 09:25:09;;;;;;;5.70;3.80;;;;;;;27.60;56.70;98135.84;4144359;28;21331;-83
2023/07/04 09:27:13;;;;;;;6.37;4.00;;;;;;;27.83;55.78;98137.06;4152596;28;20637;-83
2023/07/04 09:29:18;;;;;;;8.10;3.67;;;;;;;28.02;55.21;98134.31;4151843;28;20637;-83
2023/07/04 09:31:30;;;;;;;5.23;4.00;;;;;;;28.13;56.19;98135.50;4125689;28;20697;-79
2023/07/04 09:33:35;;;;;;;6.97;3.40;;;;;;;28.10;56.79;98126.03;4141026;28;20689;-78
2023/07/04 09:35:39;;;;;;;8.13;4.93;;;;;;;27.80;55.50;98123.22;4138069;28;20629;-78
2023/07/04 09:37:56;;;;;;;5.30;3.40;;;;;;;27.50;56.55;98122.09;4126252;28;20648;-78
2023/07/04 09:40:04;;;;;;;6.47;3.90;;;;;;;27.26;56.46;98111.97;4157284;28;20629;-78
2023/07/04 09:42:08;;;;;;;7.73;3.90;;;;;;;27.36;57.72;98115.03;4150229;28;20645;-78
2023/07/04 09:44:36;;;;;;;5.50;3.67;;;;;;;27.45;56.75;98115.66;4151168;28;20651;-78
2023/07/04 09:46:40;;;;;;;5.73;3.53;;;;;;;27.62;57.60;98117.72;4160168;28;20630;-78